sensor_id;sensor_type;location;lat;lon;timestamp;P1;durP1;ratioP1;P2;durP2;ratioP2
71969;SDS011;59838;52.152;5.436;2023-09-07T00:01:15;2.70;;;2.20;;
71969;SDS011;59838;52.152;5.436;2023-09-07T00:03:42;3.55;;;1.67;;
71969;SDS011;59838;52.152;5.436;2023-09-07T00:06:09;6.30;;;1.50;;
71969;SDS011;59838;52.152;5.436;2023-09-07T00:08:35;1.30;;;0.95;;
71969;SDS011;59838;52.152;5.436;2023-09-07T00:11:03;3.17;;;1.05;;
71969;SDS011;59838;52.152;5.436;2023-09-07T00:13:30;1.90;;;1.40;;
71969;SDS011;59838;52.152;5.436;2023-09-07T00:16:01;4.80;;;3.20;;
71969;SDS011;59838;52.152;5.436;2023-09-07T00:18:31;4.22;;;3.80;;
71969;SDS011;59838;52.152;5.436;2023-09-07T00:20:59;3.67;;;3.28;;
71969;SDS011;59838;52.152;5.436;2023-09-07T00:23:26;5.30;;;4.38;;
71969;SDS011;59838;52.152;5.436;2023-09-07T00:25:53;5.30;;;4.77;;
71969;SDS011;59838;52.152;5.436;2023-09-07T00:28:19;6.10;;;5.00;;
71969;SDS011;59838;52.152;5.436;2023-09-07T00:30:46;5.35;;;4.10;;
71969;SDS011;59838;52.152;5.436;2023-09-07T00:33:12;5.03;;;4.05;;
71969;SDS011;59838;52.152;5.436;2023-09-07T00:35:39;4.03;;;3.15;;
71969;SDS011;59838;52.152;5.436;2023-09-07T00:38:05;3.27;;;2.30;;
71969;SDS011;59838;52.152;5.436;2023-09-07T00:40:31;2.50;;;2.30;;
71969;SDS011;59838;52.152;5.436;2023-09-07T00:42:58;3.15;;;2.58;;
71969;SDS011;59838;52.152;5.436;2023-09-07T00:45:25;4.47;;;2.80;;
71969;SDS011;59838;52.152;5.436;2023-09-07T00:47:51;4.35;;;2.72;;
71969;SDS011;59838;52.152;5.436;2023-09-07T00:50:18;2.50;;;2.30;;
71969;SDS011;59838;52.152;5.436;2023-09-07T00:52:45;3.63;;;2.83;;
71969;SDS011;59838;52.152;5.436;2023-09-07T00:55:13;3.30;;;2.60;;
71969;SDS011;59838;52.152;5.436;2023-09-07T00:57:40;4.15;;;2.92;;
71969;SDS011;59838;52.152;5.436;2023-09-07T01:00:08;3.33;;;3.03;;
71969;SDS011;59838;52.152;5.436;2023-09-07T01:02:36;4.00;;;2.63;;
71969;SDS011;59838;52.152;5.436;2023-09-07T01:05:03;4.20;;;2.40;;
71969;SDS011;59838;52.152;5.436;2023-09-07T01:07:37;3.42;;;2.55;;
71969;SDS011;59838;52.152;5.436;2023-09-07T01:10:06;4.28;;;2.55;;
71969;SDS011;59838;52.152;5.436;2023-09-07T01:12:34;1.90;;;1.70;;
71969;SDS011;59838;52.152;5.436;2023-09-07T01:15:00;3.03;;;1.73;;
71969;SDS011;59838;52.152;5.436;2023-09-07T01:17:31;3.38;;;1.90;;
71969;SDS011;59838;52.152;5.436;2023-09-07T01:20:00;2.28;;;1.92;;
71969;SDS011;59838;52.152;5.436;2023-09-07T01:22:32;3.55;;;1.13;;
71969;SDS011;59838;52.152;5.436;2023-09-07T01:24:59;2.13;;;1.55;;
71969;SDS011;59838;52.152;5.436;2023-09-07T01:27:26;3.20;;;2.33;;
71969;SDS011;59838;52.152;5.436;2023-09-07T01:29:53;4.28;;;2.30;;
71969;SDS011;59838;52.152;5.436;2023-09-07T01:32:20;4.30;;;2.72;;
71969;SDS011;59838;52.152;5.436;2023-09-07T01:34:46;3.45;;;3.08;;
71969;SDS011;59838;52.152;5.436;2023-09-07T01:37:13;3.75;;;2.63;;
71969;SDS011;59838;52.152;5.436;2023-09-07T01:39:40;3.10;;;2.30;;
71969;SDS011;59838;52.152;5.436;2023-09-07T01:42:06;3.50;;;2.88;;
71969;SDS011;59838;52.152;5.436;2023-09-07T01:44:33;3.20;;;2.80;;
71969;SDS011;59838;52.152;5.436;2023-09-07T01:47:00;3.25;;;1.98;;
71969;SDS011;59838;52.152;5.436;2023-09-07T01:49:26;3.85;;;2.60;;
71969;SDS011;59838;52.152;5.436;2023-09-07T01:51:53;2.73;;;2.17;;
71969;SDS011;59838;52.152;5.436;2023-09-07T01:54:21;2.45;;;2.00;;
71969;SDS011;59838;52.152;5.436;2023-09-07T01:56:47;3.42;;;2.50;;
71969;SDS011;59838;52.152;5.436;2023-09-07T01:59:14;2.05;;;1.83;;
71969;SDS011;59838;52.152;5.436;2023-09-07T02:01:41;3.67;;;1.65;;
71969;SDS011;59838;52.152;5.436;2023-09-07T02:04:07;2.40;;;1.57;;
71969;SDS011;59838;52.152;5.436;2023-09-07T02:06:34;2.40;;;1.10;;
71969;SDS011;59838;52.152;5.436;2023-09-07T02:09:00;2.63;;;0.88;;
71969;SDS011;59838;52.152;5.436;2023-09-07T02:11:27;1.80;;;0.93;;
71969;SDS011;59838;52.152;5.436;2023-09-07T02:13:54;1.23;;;0.47;;
71969;SDS011;59838;52.152;5.436;2023-09-07T02:16:21;1.53;;;0.60;;
71969;SDS011;59838;52.152;5.436;2023-09-07T02:18:49;2.70;;;1.55;;
71969;SDS011;59838;52.152;5.436;2023-09-07T02:21:17;1.80;;;1.40;;
71969;SDS011;59838;52.152;5.436;2023-09-07T02:23:44;4.10;;;1.70;;
71969;SDS011;59838;52.152;5.436;2023-09-07T02:26:10;2.22;;;1.92;;
71969;SDS011;59838;52.152;5.436;2023-09-07T02:28:37;2.10;;;1.80;;
71969;SDS011;59838;52.152;5.436;2023-09-07T02:31:04;3.13;;;2.00;;
71969;SDS011;59838;52.152;5.436;2023-09-07T02:33:32;5.85;;;3.58;;
71969;SDS011;59838;52.152;5.436;2023-09-07T02:35:59;11.35;;;3.70;;
71969;SDS011;59838;52.152;5.436;2023-09-07T02:38:25;8.00;;;4.15;;
71969;SDS011;59838;52.152;5.436;2023-09-07T02:40:52;14.40;;;4.10;;
71969;SDS011;59838;52.152;5.436;2023-09-07T02:43:19;19.63;;;5.15;;
71969;SDS011;59838;52.152;5.436;2023-09-07T02:45:45;20.65;;;4.50;;
71969;SDS011;59838;52.152;5.436;2023-09-07T02:48:12;7.50;;;3.53;;
71969;SDS011;59838;52.152;5.436;2023-09-07T02:50:39;7.90;;;4.00;;
71969;SDS011;59838;52.152;5.436;2023-09-07T02:53:06;4.87;;;2.93;;
71969;SDS011;59838;52.152;5.436;2023-09-07T02:55:32;8.32;;;3.35;;
71969;SDS011;59838;52.152;5.436;2023-09-07T02:57:59;3.65;;;3.25;;
71969;SDS011;59838;52.152;5.436;2023-09-07T03:00:29;4.22;;;3.13;;
71969;SDS011;59838;52.152;5.436;2023-09-07T03:02:55;3.70;;;3.03;;
71969;SDS011;59838;52.152;5.436;2023-09-07T03:05:22;3.70;;;3.03;;
71969;SDS011;59838;52.152;5.436;2023-09-07T03:07:48;3.53;;;2.65;;
71969;SDS011;59838;52.152;5.436;2023-09-07T03:10:16;4.55;;;2.88;;
71969;SDS011;59838;52.152;5.436;2023-09-07T03:12:42;4.00;;;2.78;;
71969;SDS011;59838;52.152;5.436;2023-09-07T03:15:09;2.97;;;2.40;;
71969;SDS011;59838;52.152;5.436;2023-09-07T03:17:37;3.70;;;2.30;;
71969;SDS011;59838;52.152;5.436;2023-09-07T03:20:04;4.50;;;2.60;;
71969;SDS011;59838;52.152;5.436;2023-09-07T03:22:40;3.92;;;2.92;;
71969;SDS011;59838;52.152;5.436;2023-09-07T03:25:08;5.93;;;2.97;;
71969;SDS011;59838;52.152;5.436;2023-09-07T03:27:36;4.47;;;3.17;;
71969;SDS011;59838;52.152;5.436;2023-09-07T03:30:04;6.73;;;4.20;;
71969;SDS011;59838;52.152;5.436;2023-09-07T03:32:32;3.92;;;3.53;;
71969;SDS011;59838;52.152;5.436;2023-09-07T03:34:59;5.47;;;3.13;;
71969;SDS011;59838;52.152;5.436;2023-09-07T03:37:27;4.65;;;3.20;;
71969;SDS011;59838;52.152;5.436;2023-09-07T03:39:57;3.72;;;2.40;;
71969;SDS011;59838;52.152;5.436;2023-09-07T03:42:24;4.23;;;2.30;;
71969;SDS011;59838;52.152;5.436;2023-09-07T03:44:50;3.08;;;1.75;;
71969;SDS011;59838;52.152;5.436;2023-09-07T03:47:17;4.70;;;2.60;;
71969;SDS011;59838;52.152;5.436;2023-09-07T03:49:43;2.90;;;2.35;;
71969;SDS011;59838;52.152;5.436;2023-09-07T03:52:10;2.90;;;2.60;;
71969;SDS011;59838;52.152;5.436;2023-09-07T03:54:37;3.07;;;2.60;;
71969;SDS011;59838;52.152;5.436;2023-09-07T03:57:04;3.30;;;2.53;;
71969;SDS011;59838;52.152;5.436;2023-09-07T03:59:30;2.50;;;2.05;;
71969;SDS011;59838;52.152;5.436;2023-09-07T04:01:57;3.17;;;1.33;;
71969;SDS011;59838;52.152;5.436;2023-09-07T04:04:24;3.85;;;1.50;;
71969;SDS011;59838;52.152;5.436;2023-09-07T04:06:50;2.20;;;1.80;;
71969;SDS011;59838;52.152;5.436;2023-09-07T04:09:17;2.92;;;2.65;;
71969;SDS011;59838;52.152;5.436;2023-09-07T04:11:43;3.38;;;2.50;;
71969;SDS011;59838;52.152;5.436;2023-09-07T04:14:10;4.30;;;2.38;;
71969;SDS011;59838;52.152;5.436;2023-09-07T04:16:36;3.40;;;2.53;;
71969;SDS011;59838;52.152;5.436;2023-09-07T04:19:06;3.70;;;2.13;;
71969;SDS011;59838;52.152;5.436;2023-09-07T04:21:33;4.13;;;3.30;;
71969;SDS011;59838;52.152;5.436;2023-09-07T04:24:00;6.53;;;3.38;;
71969;SDS011;59838;52.152;5.436;2023-09-07T04:26:26;4.22;;;3.08;;
71969;SDS011;59838;52.152;5.436;2023-09-07T04:28:53;3.42;;;3.08;;
71969;SDS011;59838;52.152;5.436;2023-09-07T04:31:19;3.10;;;2.60;;
71969;SDS011;59838;52.152;5.436;2023-09-07T04:33:47;4.90;;;2.95;;
71969;SDS011;59838;52.152;5.436;2023-09-07T04:36:14;3.88;;;2.97;;
71969;SDS011;59838;52.152;5.436;2023-09-07T04:38:40;3.88;;;2.40;;
71969;SDS011;59838;52.152;5.436;2023-09-07T04:41:13;4.00;;;2.90;;
71969;SDS011;59838;52.152;5.436;2023-09-07T04:43:41;3.43;;;1.93;;
71969;SDS011;59838;52.152;5.436;2023-09-07T04:46:09;2.60;;;1.88;;
71969;SDS011;59838;52.152;5.436;2023-09-07T04:48:37;2.38;;;2.00;;
71969;SDS011;59838;52.152;5.436;2023-09-07T04:51:05;3.42;;;2.92;;
71969;SDS011;59838;52.152;5.436;2023-09-07T04:53:33;5.75;;;2.90;;
71969;SDS011;59838;52.152;5.436;2023-09-07T04:56:01;3.63;;;2.63;;
71969;SDS011;59838;52.152;5.436;2023-09-07T04:58:28;5.30;;;3.15;;
71969;SDS011;59838;52.152;5.436;2023-09-07T05:01:03;4.22;;;3.03;;
71969;SDS011;59838;52.152;5.436;2023-09-07T05:03:33;5.28;;;3.13;;
71969;SDS011;59838;52.152;5.436;2023-09-07T05:06:00;4.88;;;2.35;;
71969;SDS011;59838;52.152;5.436;2023-09-07T05:08:27;8.07;;;2.40;;
71969;SDS011;59838;52.152;5.436;2023-09-07T05:10:57;5.63;;;2.15;;
71969;SDS011;59838;52.152;5.436;2023-09-07T05:13:25;5.97;;;2.50;;
71969;SDS011;59838;52.152;5.436;2023-09-07T05:15:53;3.47;;;2.92;;
71969;SDS011;59838;52.152;5.436;2023-09-07T05:18:21;3.72;;;2.92;;
71969;SDS011;59838;52.152;5.436;2023-09-07T05:20:48;4.17;;;3.53;;
71969;SDS011;59838;52.152;5.436;2023-09-07T05:23:21;5.40;;;4.40;;
71969;SDS011;59838;52.152;5.436;2023-09-07T05:25:52;4.57;;;2.97;;
71969;SDS011;59838;52.152;5.436;2023-09-07T05:28:20;4.50;;;3.10;;
71969;SDS011;59838;52.152;5.436;2023-09-07T05:30:47;3.78;;;3.30;;
71969;SDS011;59838;52.152;5.436;2023-09-07T05:33:15;6.23;;;3.20;;
71969;SDS011;59838;52.152;5.436;2023-09-07T05:35:43;10.48;;;3.97;;
71969;SDS011;59838;52.152;5.436;2023-09-07T05:38:09;4.63;;;3.28;;
71969;SDS011;59838;52.152;5.436;2023-09-07T05:40:36;7.80;;;4.05;;
71969;SDS011;59838;52.152;5.436;2023-09-07T05:43:04;4.30;;;3.30;;
71969;SDS011;59838;52.152;5.436;2023-09-07T05:45:33;5.33;;;3.27;;
71969;SDS011;59838;52.152;5.436;2023-09-07T05:48:03;4.80;;;3.38;;
71969;SDS011;59838;52.152;5.436;2023-09-07T05:50:31;9.57;;;3.70;;
71969;SDS011;59838;52.152;5.436;2023-09-07T05:52:59;4.78;;;3.70;;
71969;SDS011;59838;52.152;5.436;2023-09-07T05:55:26;5.78;;;4.00;;
71969;SDS011;59838;52.152;5.436;2023-09-07T05:57:56;4.83;;;3.70;;
71969;SDS011;59838;52.152;5.436;2023-09-07T06:00:23;5.40;;;3.63;;
71969;SDS011;59838;52.152;5.436;2023-09-07T06:02:50;3.70;;;3.40;;
71969;SDS011;59838;52.152;5.436;2023-09-07T06:05:17;6.07;;;4.25;;
71969;SDS011;59838;52.152;5.436;2023-09-07T06:07:44;15.02;;;5.00;;
71969;SDS011;59838;52.152;5.436;2023-09-07T06:10:10;8.17;;;4.60;;
71969;SDS011;59838;52.152;5.436;2023-09-07T06:12:37;8.00;;;5.00;;
71969;SDS011;59838;52.152;5.436;2023-09-07T06:15:04;11.75;;;5.10;;
71969;SDS011;59838;52.152;5.436;2023-09-07T06:17:31;10.23;;;5.20;;
71969;SDS011;59838;52.152;5.436;2023-09-07T06:19:57;10.27;;;5.63;;
71969;SDS011;59838;52.152;5.436;2023-09-07T06:22:24;15.67;;;5.80;;
71969;SDS011;59838;52.152;5.436;2023-09-07T06:24:50;9.23;;;5.85;;
71969;SDS011;59838;52.152;5.436;2023-09-07T06:27:17;16.50;;;6.13;;
71969;SDS011;59838;52.152;5.436;2023-09-07T06:29:44;10.13;;;5.35;;
71969;SDS011;59838;52.152;5.436;2023-09-07T06:32:10;11.95;;;5.32;;
71969;SDS011;59838;52.152;5.436;2023-09-07T06:34:37;7.83;;;5.17;;
71969;SDS011;59838;52.152;5.436;2023-09-07T06:37:04;11.80;;;5.10;;
71969;SDS011;59838;52.152;5.436;2023-09-07T06:39:31;12.50;;;5.13;;
71969;SDS011;59838;52.152;5.436;2023-09-07T06:41:57;10.30;;;5.13;;
71969;SDS011;59838;52.152;5.436;2023-09-07T06:44:24;13.82;;;5.90;;
71969;SDS011;59838;52.152;5.436;2023-09-07T06:46:50;11.87;;;5.97;;
71969;SDS011;59838;52.152;5.436;2023-09-07T06:49:17;12.02;;;5.53;;
71969;SDS011;59838;52.152;5.436;2023-09-07T06:51:43;12.00;;;5.43;;
71969;SDS011;59838;52.152;5.436;2023-09-07T06:54:10;10.88;;;5.35;;
71969;SDS011;59838;52.152;5.436;2023-09-07T06:56:36;8.95;;;5.25;;
71969;SDS011;59838;52.152;5.436;2023-09-07T06:59:03;15.20;;;5.03;;
71969;SDS011;59838;52.152;5.436;2023-09-07T07:01:29;7.40;;;5.82;;
71969;SDS011;59838;52.152;5.436;2023-09-07T07:03:56;15.18;;;5.70;;
71969;SDS011;59838;52.152;5.436;2023-09-07T07:06:23;9.80;;;5.93;;
71969;SDS011;59838;52.152;5.436;2023-09-07T07:08:51;10.45;;;5.22;;
71969;SDS011;59838;52.152;5.436;2023-09-07T07:11:18;13.67;;;5.60;;
71969;SDS011;59838;52.152;5.436;2023-09-07T07:13:45;9.60;;;5.80;;
71969;SDS011;59838;52.152;5.436;2023-09-07T07:16:12;7.80;;;5.38;;
71969;SDS011;59838;52.152;5.436;2023-09-07T07:18:40;9.38;;;5.60;;
71969;SDS011;59838;52.152;5.436;2023-09-07T07:21:09;10.55;;;6.20;;
71969;SDS011;59838;52.152;5.436;2023-09-07T07:23:36;8.80;;;5.17;;
71969;SDS011;59838;52.152;5.436;2023-09-07T07:26:03;11.82;;;5.90;;
71969;SDS011;59838;52.152;5.436;2023-09-07T07:28:30;6.82;;;6.20;;
71969;SDS011;59838;52.152;5.436;2023-09-07T07:30:56;7.07;;;5.13;;
71969;SDS011;59838;52.152;5.436;2023-09-07T07:33:23;6.47;;;5.60;;
71969;SDS011;59838;52.152;5.436;2023-09-07T07:35:50;14.90;;;5.23;;
71969;SDS011;59838;52.152;5.436;2023-09-07T07:38:16;7.22;;;5.88;;
71969;SDS011;59838;52.152;5.436;2023-09-07T07:40:43;10.13;;;5.80;;
71969;SDS011;59838;52.152;5.436;2023-09-07T07:43:11;6.25;;;5.65;;
71969;SDS011;59838;52.152;5.436;2023-09-07T07:45:39;11.30;;;5.43;;
71969;SDS011;59838;52.152;5.436;2023-09-07T07:48:06;10.30;;;6.03;;
71969;SDS011;59838;52.152;5.436;2023-09-07T07:50:40;7.55;;;6.88;;
71969;SDS011;59838;52.152;5.436;2023-09-07T07:53:07;8.95;;;5.55;;
71969;SDS011;59838;52.152;5.436;2023-09-07T07:55:35;7.90;;;5.57;;
71969;SDS011;59838;52.152;5.436;2023-09-07T07:58:05;8.80;;;5.45;;
71969;SDS011;59838;52.152;5.436;2023-09-07T08:00:34;14.10;;;5.73;;
71969;SDS011;59838;52.152;5.436;2023-09-07T08:03:01;7.53;;;5.57;;
71969;SDS011;59838;52.152;5.436;2023-09-07T08:05:29;6.32;;;5.60;;
71969;SDS011;59838;52.152;5.436;2023-09-07T08:07:56;9.23;;;5.38;;
71969;SDS011;59838;52.152;5.436;2023-09-07T08:10:22;6.40;;;5.07;;
71969;SDS011;59838;52.152;5.436;2023-09-07T08:12:52;14.17;;;5.53;;
71969;SDS011;59838;52.152;5.436;2023-09-07T08:15:20;6.93;;;5.72;;
71969;SDS011;59838;52.152;5.436;2023-09-07T08:17:48;8.02;;;4.90;;
71969;SDS011;59838;52.152;5.436;2023-09-07T08:20:15;8.65;;;5.65;;
71969;SDS011;59838;52.152;5.436;2023-09-07T08:22:42;8.23;;;5.22;;
71969;SDS011;59838;52.152;5.436;2023-09-07T08:25:10;7.70;;;5.00;;
71969;SDS011;59838;52.152;5.436;2023-09-07T08:27:42;9.73;;;5.07;;
71969;SDS011;59838;52.152;5.436;2023-09-07T08:30:14;9.52;;;4.70;;
71969;SDS011;59838;52.152;5.436;2023-09-07T08:32:42;8.35;;;5.60;;
71969;SDS011;59838;52.152;5.436;2023-09-07T08:35:09;10.30;;;4.85;;
71969;SDS011;59838;52.152;5.436;2023-09-07T08:37:39;8.73;;;4.53;;
71969;SDS011;59838;52.152;5.436;2023-09-07T08:40:06;9.48;;;4.60;;
71969;SDS011;59838;52.152;5.436;2023-09-07T08:42:37;7.57;;;4.40;;
71969;SDS011;59838;52.152;5.436;2023-09-07T08:45:04;6.10;;;4.95;;
71969;SDS011;59838;52.152;5.436;2023-09-07T08:47:34;9.18;;;4.57;;
71969;SDS011;59838;52.152;5.436;2023-09-07T08:50:04;7.27;;;4.60;;
71969;SDS011;59838;52.152;5.436;2023-09-07T08:52:35;5.70;;;3.65;;
71969;SDS011;59838;52.152;5.436;2023-09-07T08:55:02;8.57;;;3.90;;
71969;SDS011;59838;52.152;5.436;2023-09-07T08:57:31;7.10;;;3.50;;
71969;SDS011;59838;52.152;5.436;2023-09-07T09:00:00;9.52;;;4.38;;
71969;SDS011;59838;52.152;5.436;2023-09-07T09:02:33;8.83;;;4.10;;
71969;SDS011;59838;52.152;5.436;2023-09-07T09:05:00;6.38;;;3.85;;
71969;SDS011;59838;52.152;5.436;2023-09-07T09:07:27;4.68;;;3.33;;
71969;SDS011;59838;52.152;5.436;2023-09-07T09:10:02;4.90;;;3.67;;
71969;SDS011;59838;52.152;5.436;2023-09-07T09:12:31;4.22;;;3.50;;
71969;SDS011;59838;52.152;5.436;2023-09-07T09:14:58;3.70;;;2.97;;
71969;SDS011;59838;52.152;5.436;2023-09-07T09:17:26;8.30;;;3.83;;
71969;SDS011;59838;52.152;5.436;2023-09-07T09:19:53;5.88;;;3.13;;
71969;SDS011;59838;52.152;5.436;2023-09-07T09:22:19;9.32;;;3.38;;
71969;SDS011;59838;52.152;5.436;2023-09-07T09:24:49;8.80;;;3.13;;
71969;SDS011;59838;52.152;5.436;2023-09-07T09:27:16;6.43;;;2.80;;
71969;SDS011;59838;52.152;5.436;2023-09-07T09:29:43;3.72;;;2.85;;
71969;SDS011;59838;52.152;5.436;2023-09-07T09:32:13;5.90;;;2.60;;
71969;SDS011;59838;52.152;5.436;2023-09-07T09:34:40;7.80;;;2.70;;
71969;SDS011;59838;52.152;5.436;2023-09-07T09:37:13;5.75;;;2.60;;
71969;SDS011;59838;52.152;5.436;2023-09-07T09:39:41;5.93;;;2.73;;
71969;SDS011;59838;52.152;5.436;2023-09-07T09:42:09;6.07;;;2.80;;
71969;SDS011;59838;52.152;5.436;2023-09-07T09:44:37;8.82;;;2.65;;
71969;SDS011;59838;52.152;5.436;2023-09-07T09:47:05;9.73;;;2.90;;
71969;SDS011;59838;52.152;5.436;2023-09-07T09:49:34;16.00;;;3.53;;
71969;SDS011;59838;52.152;5.436;2023-09-07T09:52:01;6.77;;;2.60;;
71969;SDS011;59838;52.152;5.436;2023-09-07T09:54:29;6.07;;;2.35;;
71969;SDS011;59838;52.152;5.436;2023-09-07T09:56:57;4.45;;;1.83;;
71969;SDS011;59838;52.152;5.436;2023-09-07T09:59:23;2.92;;;2.22;;
71969;SDS011;59838;52.152;5.436;2023-09-07T10:01:50;4.13;;;2.20;;
71969;SDS011;59838;52.152;5.436;2023-09-07T10:04:19;5.03;;;2.30;;
71969;SDS011;59838;52.152;5.436;2023-09-07T10:06:56;2.65;;;2.10;;
71969;SDS011;59838;52.152;5.436;2023-09-07T10:09:28;6.70;;;2.08;;
71969;SDS011;59838;52.152;5.436;2023-09-07T10:11:57;4.32;;;2.33;;
71969;SDS011;59838;52.152;5.436;2023-09-07T10:14:25;4.20;;;2.13;;
71969;SDS011;59838;52.152;5.436;2023-09-07T10:16:52;6.10;;;2.50;;
71969;SDS011;59838;52.152;5.436;2023-09-07T10:19:23;7.00;;;2.90;;
71969;SDS011;59838;52.152;5.436;2023-09-07T10:21:52;3.13;;;2.75;;
71969;SDS011;59838;52.152;5.436;2023-09-07T10:24:23;2.83;;;1.88;;
71969;SDS011;59838;52.152;5.436;2023-09-07T10:27:04;8.93;;;2.75;;
71969;SDS011;59838;52.152;5.436;2023-09-07T10:30:07;4.03;;;3.10;;
71969;SDS011;59838;52.152;5.436;2023-09-07T10:32:26;4.65;;;2.70;;
71969;SDS011;59838;52.152;5.436;2023-09-07T10:35:11;3.90;;;3.00;;
71969;SDS011;59838;52.152;5.436;2023-09-07T10:37:38;5.60;;;2.83;;
71969;SDS011;59838;52.152;5.436;2023-09-07T10:40:05;5.45;;;3.10;;
71969;SDS011;59838;52.152;5.436;2023-09-07T10:42:37;4.70;;;2.70;;
71969;SDS011;59838;52.152;5.436;2023-09-07T10:45:08;3.95;;;2.60;;
71969;SDS011;59838;52.152;5.436;2023-09-07T10:47:44;5.28;;;2.80;;
71969;SDS011;59838;52.152;5.436;2023-09-07T10:50:12;3.45;;;2.67;;
71969;SDS011;59838;52.152;5.436;2023-09-07T10:52:40;5.03;;;2.58;;
71969;SDS011;59838;52.152;5.436;2023-09-07T10:55:11;4.73;;;2.47;;
71969;SDS011;59838;52.152;5.436;2023-09-07T10:57:45;3.17;;;2.58;;
71969;SDS011;59838;52.152;5.436;2023-09-07T11:00:13;18.17;;;3.50;;
71969;SDS011;59838;52.152;5.436;2023-09-07T11:02:41;2.92;;;2.38;;
71969;SDS011;59838;52.152;5.436;2023-09-07T11:05:10;4.00;;;2.70;;
71969;SDS011;59838;52.152;5.436;2023-09-07T11:07:36;2.60;;;2.37;;
71969;SDS011;59838;52.152;5.436;2023-09-07T11:10:05;3.20;;;2.90;;
71969;SDS011;59838;52.152;5.436;2023-09-07T11:12:39;2.50;;;2.30;;
71969;SDS011;59838;52.152;5.436;2023-09-07T11:15:09;3.20;;;2.72;;
71969;SDS011;59838;52.152;5.436;2023-09-07T11:17:37;7.45;;;2.92;;
71969;SDS011;59838;52.152;5.436;2023-09-07T11:20:06;3.30;;;2.50;;
71969;SDS011;59838;52.152;5.436;2023-09-07T11:22:33;6.75;;;2.65;;
71969;SDS011;59838;52.152;5.436;2023-09-07T11:25:01;3.63;;;2.95;;
71969;SDS011;59838;52.152;5.436;2023-09-07T11:27:31;2.60;;;2.40;;
71969;SDS011;59838;52.152;5.436;2023-09-07T11:29:58;6.22;;;2.85;;
71969;SDS011;59838;52.152;5.436;2023-09-07T11:32:32;5.40;;;2.20;;
71969;SDS011;59838;52.152;5.436;2023-09-07T11:35:00;4.30;;;2.35;;
71969;SDS011;59838;52.152;5.436;2023-09-07T11:37:27;4.75;;;2.17;;
71969;SDS011;59838;52.152;5.436;2023-09-07T11:39:54;3.45;;;2.50;;
71969;SDS011;59838;52.152;5.436;2023-09-07T11:42:20;4.88;;;3.88;;
71969;SDS011;59838;52.152;5.436;2023-09-07T11:44:47;4.80;;;2.67;;
71969;SDS011;59838;52.152;5.436;2023-09-07T11:47:13;4.40;;;2.90;;
71969;SDS011;59838;52.152;5.436;2023-09-07T11:49:40;4.30;;;2.50;;
71969;SDS011;59838;52.152;5.436;2023-09-07T11:52:07;5.80;;;2.45;;
71969;SDS011;59838;52.152;5.436;2023-09-07T11:54:34;2.50;;;2.28;;
71969;SDS011;59838;52.152;5.436;2023-09-07T11:57:00;2.87;;;2.57;;
71969;SDS011;59838;52.152;5.436;2023-09-07T11:59:27;2.92;;;2.50;;
71969;SDS011;59838;52.152;5.436;2023-09-07T12:02:09;2.63;;;2.20;;
71969;SDS011;59838;52.152;5.436;2023-09-07T12:04:41;4.05;;;2.35;;
71969;SDS011;59838;52.152;5.436;2023-09-07T12:07:07;3.53;;;2.80;;
71969;SDS011;59838;52.152;5.436;2023-09-07T12:09:34;4.33;;;2.50;;
71969;SDS011;59838;52.152;5.436;2023-09-07T12:12:00;6.65;;;2.60;;
71969;SDS011;59838;52.152;5.436;2023-09-07T12:14:26;5.20;;;2.40;;
71969;SDS011;59838;52.152;5.436;2023-09-07T12:16:53;4.13;;;2.70;;
71969;SDS011;59838;52.152;5.436;2023-09-07T12:19:20;6.82;;;2.97;;
71969;SDS011;59838;52.152;5.436;2023-09-07T12:21:46;2.93;;;2.27;;
71969;SDS011;59838;52.152;5.436;2023-09-07T12:24:15;5.25;;;2.05;;
71969;SDS011;59838;52.152;5.436;2023-09-07T12:26:41;3.50;;;2.30;;
71969;SDS011;59838;52.152;5.436;2023-09-07T12:29:08;3.42;;;2.30;;
71969;SDS011;59838;52.152;5.436;2023-09-07T12:31:35;6.28;;;3.50;;
71969;SDS011;59838;52.152;5.436;2023-09-07T12:34:01;4.27;;;1.80;;
71969;SDS011;59838;52.152;5.436;2023-09-07T12:36:28;2.33;;;2.13;;
71969;SDS011;59838;52.152;5.436;2023-09-07T12:38:56;4.07;;;2.50;;
71969;SDS011;59838;52.152;5.436;2023-09-07T12:41:28;3.10;;;2.30;;
71969;SDS011;59838;52.152;5.436;2023-09-07T12:43:56;5.18;;;2.47;;
71969;SDS011;59838;52.152;5.436;2023-09-07T12:46:23;5.17;;;2.50;;
71969;SDS011;59838;52.152;5.436;2023-09-07T12:48:49;3.03;;;2.10;;
71969;SDS011;59838;52.152;5.436;2023-09-07T12:51:16;4.18;;;2.63;;
71969;SDS011;59838;52.152;5.436;2023-09-07T12:53:42;3.83;;;2.22;;
71969;SDS011;59838;52.152;5.436;2023-09-07T12:56:09;2.25;;;2.03;;
71969;SDS011;59838;52.152;5.436;2023-09-07T12:58:35;2.50;;;1.97;;
71969;SDS011;59838;52.152;5.436;2023-09-07T13:01:03;2.53;;;2.05;;
71969;SDS011;59838;52.152;5.436;2023-09-07T13:03:30;6.78;;;2.20;;
71969;SDS011;59838;52.152;5.436;2023-09-07T13:05:57;4.35;;;2.40;;
71969;SDS011;59838;52.152;5.436;2023-09-07T13:08:24;2.35;;;2.13;;
71969;SDS011;59838;52.152;5.436;2023-09-07T13:10:50;2.20;;;1.90;;
71969;SDS011;59838;52.152;5.436;2023-09-07T13:13:18;2.30;;;2.10;;
71969;SDS011;59838;52.152;5.436;2023-09-07T13:15:44;2.83;;;2.30;;
71969;SDS011;59838;52.152;5.436;2023-09-07T13:18:11;3.00;;;2.65;;
71969;SDS011;59838;52.152;5.436;2023-09-07T13:20:38;3.15;;;1.95;;
71969;SDS011;59838;52.152;5.436;2023-09-07T13:23:05;5.30;;;2.50;;
71969;SDS011;59838;52.152;5.436;2023-09-07T13:25:31;2.45;;;2.00;;
71969;SDS011;59838;52.152;5.436;2023-09-07T13:27:58;2.45;;;2.25;;
71969;SDS011;59838;52.152;5.436;2023-09-07T13:30:27;3.08;;;2.78;;
71969;SDS011;59838;52.152;5.436;2023-09-07T13:32:53;3.70;;;2.30;;
71969;SDS011;59838;52.152;5.436;2023-09-07T13:35:20;5.43;;;2.63;;
71969;SDS011;59838;52.152;5.436;2023-09-07T13:37:46;3.53;;;2.40;;
71969;SDS011;59838;52.152;5.436;2023-09-07T13:40:12;4.05;;;2.58;;
71969;SDS011;59838;52.152;5.436;2023-09-07T13:42:41;3.70;;;2.10;;
71969;SDS011;59838;52.152;5.436;2023-09-07T13:45:09;5.72;;;2.03;;
71969;SDS011;59838;52.152;5.436;2023-09-07T13:47:36;3.77;;;2.47;;
71969;SDS011;59838;52.152;5.436;2023-09-07T13:50:03;2.55;;;2.20;;
71969;SDS011;59838;52.152;5.436;2023-09-07T13:52:31;3.67;;;2.03;;
71969;SDS011;59838;52.152;5.436;2023-09-07T13:54:57;2.53;;;2.33;;
71969;SDS011;59838;52.152;5.436;2023-09-07T13:57:24;4.93;;;2.75;;
71969;SDS011;59838;52.152;5.436;2023-09-07T13:59:51;5.80;;;1.83;;
71969;SDS011;59838;52.152;5.436;2023-09-07T14:02:17;6.22;;;2.42;;
71969;SDS011;59838;52.152;5.436;2023-09-07T14:04:44;2.45;;;2.25;;
71969;SDS011;59838;52.152;5.436;2023-09-07T14:07:10;2.95;;;2.10;;
71969;SDS011;59838;52.152;5.436;2023-09-07T14:09:37;2.45;;;2.20;;
71969;SDS011;59838;52.152;5.436;2023-09-07T14:12:03;7.10;;;2.60;;
71969;SDS011;59838;52.152;5.436;2023-09-07T14:14:30;3.55;;;2.40;;
71969;SDS011;59838;52.152;5.436;2023-09-07T14:16:57;2.55;;;2.22;;
71969;SDS011;59838;52.152;5.436;2023-09-07T14:19:24;2.85;;;2.10;;
71969;SDS011;59838;52.152;5.436;2023-09-07T14:21:53;2.95;;;2.35;;
71969;SDS011;59838;52.152;5.436;2023-09-07T14:24:20;3.17;;;2.43;;
71969;SDS011;59838;52.152;5.436;2023-09-07T14:26:46;5.30;;;2.15;;
71969;SDS011;59838;52.152;5.436;2023-09-07T14:29:12;2.50;;;2.30;;
71969;SDS011;59838;52.152;5.436;2023-09-07T14:31:39;5.28;;;2.47;;
71969;SDS011;59838;52.152;5.436;2023-09-07T14:34:05;3.65;;;2.72;;
71969;SDS011;59838;52.152;5.436;2023-09-07T14:36:32;3.27;;;2.47;;
71969;SDS011;59838;52.152;5.436;2023-09-07T14:38:58;2.80;;;2.38;;
71969;SDS011;59838;52.152;5.436;2023-09-07T14:41:25;2.92;;;2.67;;
71969;SDS011;59838;52.152;5.436;2023-09-07T14:43:54;4.85;;;2.28;;
71969;SDS011;59838;52.152;5.436;2023-09-07T14:46:20;3.17;;;2.88;;
71969;SDS011;59838;52.152;5.436;2023-09-07T14:48:48;2.93;;;2.27;;